Current Conditions
Mostly Clear
Conditions



Pressure
1019.92 (hPa) - 30.12 (inHG)
Visibility

10.0 (km) - 6.2 (miles)
Temperature
14  °C
Temperature
9  °C
Dewpoint
72  %
 Humidity
Wind Speed
2  km/h
1  kts
1  mph
0.4  m/s
Wind Direction
N
45°
E
90°
135°
S
180°
225°
W
270°
315°
 140°

South East
Airport Data
LTBA
İstanbul Atatürk Airport
Metar :LTBA 230450Z 14001KT CAVOK 14/09 Q1020 NOSIG RMK RWY23 15003KT
Fri 23rd April 07:50 am
Raw Metar Info
Raw METAR is the most common format in the world for the transmission of observational weather data. It is highly standardized through the International Civil Aviation Organization (ICAO), which allows it to be understood throughout most of the world.
API Info
Data Provided by
https://www.checkwx.com/weather/

Aviation Weather providing METAR, TAF, AIRMET, SIGMET and OUTLOOK Weather Reports
© Info
CSS/SVG/PHP scripts were developed by weather34.com for use in the weather34 template © 2015-2021

Guide Info provided by Metar-Wikipedia